sensor_id;sensor_type;location;lat;lon;timestamp;temperature;humidity
39219;DHT22;24934;52.752;6.964;2022-11-18T00:01:33;6.50;99.90
39219;DHT22;24934;52.752;6.964;2022-11-18T00:03:59;6.50;99.90
39219;DHT22;24934;52.752;6.964;2022-11-18T00:06:26;6.50;99.90
39219;DHT22;24934;52.752;6.964;2022-11-18T00:08:53;6.50;99.90
39219;DHT22;24934;52.752;6.964;2022-11-18T00:11:21;6.50;99.90
39219;DHT22;24934;52.752;6.964;2022-11-18T00:14:10;6.50;99.90
39219;DHT22;24934;52.752;6.964;2022-11-18T00:16:50;6.50;99.90
39219;DHT22;24934;52.752;6.964;2022-11-18T00:19:21;6.50;99.90
39219;DHT22;24934;52.752;6.964;2022-11-18T00:21:47;6.50;99.90
39219;DHT22;24934;52.752;6.964;2022-11-18T00:24:13;6.50;99.90
39219;DHT22;24934;52.752;6.964;2022-11-18T00:26:38;6.50;99.90
39219;DHT22;24934;52.752;6.964;2022-11-18T00:29:04;6.50;99.90
39219;DHT22;24934;52.752;6.964;2022-11-18T00:31:30;6.50;99.90
39219;DHT22;24934;52.752;6.964;2022-11-18T00:33:55;6.50;99.90
39219;DHT22;24934;52.752;6.964;2022-11-18T00:36:21;6.50;99.90
39219;DHT22;24934;52.752;6.964;2022-11-18T00:38:47;6.50;99.90
39219;DHT22;24934;52.752;6.964;2022-11-18T00:41:14;6.50;99.90
39219;DHT22;24934;52.752;6.964;2022-11-18T00:43:40;6.50;99.90
39219;DHT22;24934;52.752;6.964;2022-11-18T00:46:08;6.50;99.90
39219;DHT22;24934;52.752;6.964;2022-11-18T00:48:35;6.50;99.90
39219;DHT22;24934;52.752;6.964;2022-11-18T00:51:15;6.50;99.90
39219;DHT22;24934;52.752;6.964;2022-11-18T00:53:41;6.50;99.90
39219;DHT22;24934;52.752;6.964;2022-11-18T00:56:08;6.50;99.90
39219;DHT22;24934;52.752;6.964;2022-11-18T00:58:34;6.50;99.90
39219;DHT22;24934;52.752;6.964;2022-11-18T01:01:00;6.50;99.90
39219;DHT22;24934;52.752;6.964;2022-11-18T01:03:27;6.50;99.90
39219;DHT22;24934;52.752;6.964;2022-11-18T01:05:53;6.50;99.90
39219;DHT22;24934;52.752;6.964;2022-11-18T01:08:19;6.50;99.90
39219;DHT22;24934;52.752;6.964;2022-11-18T01:10:46;6.50;99.90
39219;DHT22;24934;52.752;6.964;2022-11-18T01:13:15;6.50;99.90
39219;DHT22;24934;52.752;6.964;2022-11-18T01:15:55;6.50;99.90
39219;DHT22;24934;52.752;6.964;2022-11-18T01:18:26;6.50;99.90
39219;DHT22;24934;52.752;6.964;2022-11-18T01:20:59;6.50;99.90
39219;DHT22;24934;52.752;6.964;2022-11-18T01:23:25;6.50;99.90
39219;DHT22;24934;52.752;6.964;2022-11-18T01:25:50;6.50;99.90
39219;DHT22;24934;52.752;6.964;2022-11-18T01:28:17;6.50;99.90
39219;DHT22;24934;52.752;6.964;2022-11-18T01:30:43;6.50;99.90
39219;DHT22;24934;52.752;6.964;2022-11-18T01:33:12;6.50;99.90
39219;DHT22;24934;52.752;6.964;2022-11-18T01:35:40;6.50;99.90
39219;DHT22;24934;52.752;6.964;2022-11-18T01:38:08;6.50;99.90
39219;DHT22;24934;52.752;6.964;2022-11-18T01:40:35;6.50;99.90
39219;DHT22;24934;52.752;6.964;2022-11-18T01:43:01;6.50;99.90
39219;DHT22;24934;52.752;6.964;2022-11-18T01:45:33;6.50;99.90
39219;DHT22;24934;52.752;6.964;2022-11-18T01:48:17;6.50;99.90
39219;DHT22;24934;52.752;6.964;2022-11-18T01:50:57;6.50;99.90
39219;DHT22;24934;52.752;6.964;2022-11-18T01:53:31;6.50;99.90
39219;DHT22;24934;52.752;6.964;2022-11-18T01:56:01;6.50;99.90
39219;DHT22;24934;52.752;6.964;2022-11-18T02:00:57;6.50;99.90
39219;DHT22;24934;52.752;6.964;2022-11-18T02:03:24;6.50;99.90
39219;DHT22;24934;52.752;6.964;2022-11-18T02:05:52;6.50;99.90
39219;DHT22;24934;52.752;6.964;2022-11-18T02:08:19;6.50;99.90
39219;DHT22;24934;52.752;6.964;2022-11-18T02:10:46;6.50;99.90
39219;DHT22;24934;52.752;6.964;2022-11-18T02:13:12;6.40;99.90
39219;DHT22;24934;52.752;6.964;2022-11-18T02:15:43;6.40;99.90
39219;DHT22;24934;52.752;6.964;2022-11-18T02:27:03;6.50;99.90
39219;DHT22;24934;52.752;6.964;2022-11-18T02:32:15;6.50;99.90
39219;DHT22;24934;52.752;6.964;2022-11-18T02:38:01;6.40;99.90
39219;DHT22;24934;52.752;6.964;2022-11-18T02:40:32;6.40;99.90
39219;DHT22;24934;52.752;6.964;2022-11-18T02:43:05;6.40;99.90
39219;DHT22;24934;52.752;6.964;2022-11-18T02:45:32;6.40;99.90
39219;DHT22;24934;52.752;6.964;2022-11-18T02:48:03;6.40;99.90
39219;DHT22;24934;52.752;6.964;2022-11-18T02:50:32;6.40;99.90
39219;DHT22;24934;52.752;6.964;2022-11-18T02:53:01;6.40;99.90
39219;DHT22;24934;52.752;6.964;2022-11-18T02:55:31;6.40;99.90
39219;DHT22;24934;52.752;6.964;2022-11-18T02:58:00;6.40;99.90
39219;DHT22;24934;52.752;6.964;2022-11-18T03:00:26;6.40;99.90
39219;DHT22;24934;52.752;6.964;2022-11-18T03:02:52;6.40;99.90
39219;DHT22;24934;52.752;6.964;2022-11-18T03:05:42;6.40;99.90
39219;DHT22;24934;52.752;6.964;2022-11-18T03:08:18;6.40;99.90
39219;DHT22;24934;52.752;6.964;2022-11-18T03:10:53;6.40;99.90
39219;DHT22;24934;52.752;6.964;2022-11-18T03:13:33;6.40;99.90
39219;DHT22;24934;52.752;6.964;2022-11-18T03:16:08;6.40;99.90
39219;DHT22;24934;52.752;6.964;2022-11-18T03:18:47;6.40;99.90
39219;DHT22;24934;52.752;6.964;2022-11-18T03:21:28;6.40;99.90
39219;DHT22;24934;52.752;6.964;2022-11-18T03:26:37;6.40;99.90
39219;DHT22;24934;52.752;6.964;2022-11-18T03:29:09;6.40;99.90
39219;DHT22;24934;52.752;6.964;2022-11-18T03:31:44;6.40;99.90
39219;DHT22;24934;52.752;6.964;2022-11-18T03:34:38;6.40;99.90
39219;DHT22;24934;52.752;6.964;2022-11-18T03:37:08;6.40;99.90
39219;DHT22;24934;52.752;6.964;2022-11-18T03:39:38;6.40;99.90
39219;DHT22;24934;52.752;6.964;2022-11-18T03:42:22;6.40;99.90
39219;DHT22;24934;52.752;6.964;2022-11-18T03:44:56;6.40;99.90
39219;DHT22;24934;52.752;6.964;2022-11-18T03:47:37;6.30;99.90
39219;DHT22;24934;52.752;6.964;2022-11-18T03:50:10;6.40;99.90
39219;DHT22;24934;52.752;6.964;2022-11-18T03:52:38;6.30;99.90
39219;DHT22;24934;52.752;6.964;2022-11-18T03:55:11;6.30;99.90
39219;DHT22;24934;52.752;6.964;2022-11-18T03:57:53;6.40;99.90
39219;DHT22;24934;52.752;6.964;2022-11-18T04:00:21;6.40;99.90
39219;DHT22;24934;52.752;6.964;2022-11-18T04:02:48;6.40;99.90
39219;DHT22;24934;52.752;6.964;2022-11-18T04:05:16;6.30;99.90
39219;DHT22;24934;52.752;6.964;2022-11-18T04:08:15;6.40;99.90
39219;DHT22;24934;52.752;6.964;2022-11-18T04:11:10;6.30;99.90
39219;DHT22;24934;52.752;6.964;2022-11-18T04:13:58;6.30;99.90
39219;DHT22;24934;52.752;6.964;2022-11-18T04:16:24;6.30;99.90
39219;DHT22;24934;52.752;6.964;2022-11-18T04:18:50;6.30;99.90
39219;DHT22;24934;52.752;6.964;2022-11-18T04:21:15;6.30;99.90
39219;DHT22;24934;52.752;6.964;2022-11-18T04:23:41;6.30;99.90
39219;DHT22;24934;52.752;6.964;2022-11-18T04:26:09;6.30;99.90
39219;DHT22;24934;52.752;6.964;2022-11-18T04:28:36;6.30;99.90
39219;DHT22;24934;52.752;6.964;2022-11-18T04:31:01;6.30;99.90
39219;DHT22;24934;52.752;6.964;2022-11-18T04:33:27;6.30;99.90
39219;DHT22;24934;52.752;6.964;2022-11-18T04:35:52;6.30;99.90
39219;DHT22;24934;52.752;6.964;2022-11-18T04:38:18;6.30;99.90
39219;DHT22;24934;52.752;6.964;2022-11-18T04:40:45;6.30;99.90
39219;DHT22;24934;52.752;6.964;2022-11-18T04:43:11;6.20;99.90
39219;DHT22;24934;52.752;6.964;2022-11-18T04:45:36;6.20;99.90
39219;DHT22;24934;52.752;6.964;2022-11-18T04:48:02;6.20;99.90
39219;DHT22;24934;52.752;6.964;2022-11-18T04:50:28;6.20;99.90
39219;DHT22;24934;52.752;6.964;2022-11-18T04:52:53;6.20;99.90
39219;DHT22;24934;52.752;6.964;2022-11-18T04:55:19;6.20;99.90
39219;DHT22;24934;52.752;6.964;2022-11-18T04:57:44;6.20;99.90
39219;DHT22;24934;52.752;6.964;2022-11-18T05:00:10;6.20;99.90
39219;DHT22;24934;52.752;6.964;2022-11-18T05:02:36;6.20;99.90
39219;DHT22;24934;52.752;6.964;2022-11-18T05:05:02;6.20;99.90
39219;DHT22;24934;52.752;6.964;2022-11-18T05:07:27;6.10;99.90
39219;DHT22;24934;52.752;6.964;2022-11-18T05:09:53;6.10;99.90
39219;DHT22;24934;52.752;6.964;2022-11-18T05:12:18;6.10;99.90
39219;DHT22;24934;52.752;6.964;2022-11-18T05:15:03;6.10;99.90
39219;DHT22;24934;52.752;6.964;2022-11-18T05:17:28;6.10;99.90
39219;DHT22;24934;52.752;6.964;2022-11-18T05:19:54;6.10;99.90
39219;DHT22;24934;52.752;6.964;2022-11-18T05:22:20;6.10;99.90
39219;DHT22;24934;52.752;6.964;2022-11-18T05:24:46;6.20;99.90
39219;DHT22;24934;52.752;6.964;2022-11-18T05:27:12;6.10;99.90
39219;DHT22;24934;52.752;6.964;2022-11-18T05:29:37;6.10;99.90
39219;DHT22;24934;52.752;6.964;2022-11-18T05:32:03;6.10;99.90
39219;DHT22;24934;52.752;6.964;2022-11-18T05:34:29;6.10;99.90
39219;DHT22;24934;52.752;6.964;2022-11-18T05:36:55;6.10;99.90
39219;DHT22;24934;52.752;6.964;2022-11-18T05:39:20;6.20;99.90
39219;DHT22;24934;52.752;6.964;2022-11-18T05:41:46;6.10;99.90
39219;DHT22;24934;52.752;6.964;2022-11-18T05:44:30;6.10;99.90
39219;DHT22;24934;52.752;6.964;2022-11-18T05:46:56;6.10;99.90
39219;DHT22;24934;52.752;6.964;2022-11-18T05:49:21;6.10;99.90
39219;DHT22;24934;52.752;6.964;2022-11-18T05:51:47;6.10;99.90
39219;DHT22;24934;52.752;6.964;2022-11-18T05:54:14;6.10;99.90
39219;DHT22;24934;52.752;6.964;2022-11-18T05:56:42;6.10;99.90
39219;DHT22;24934;52.752;6.964;2022-11-18T05:59:12;6.10;99.90
39219;DHT22;24934;52.752;6.964;2022-11-18T06:02:04;6.00;99.90
39219;DHT22;24934;52.752;6.964;2022-11-18T06:07:21;6.00;99.90
39219;DHT22;24934;52.752;6.964;2022-11-18T06:09:51;6.00;99.90
39219;DHT22;24934;52.752;6.964;2022-11-18T06:12:21;6.00;99.90
39219;DHT22;24934;52.752;6.964;2022-11-18T06:14:57;6.00;99.90
39219;DHT22;24934;52.752;6.964;2022-11-18T06:17:30;6.00;99.90
39219;DHT22;24934;52.752;6.964;2022-11-18T06:19:58;6.00;99.90
39219;DHT22;24934;52.752;6.964;2022-11-18T06:22:24;6.00;99.90
39219;DHT22;24934;52.752;6.964;2022-11-18T06:24:50;6.00;99.90
39219;DHT22;24934;52.752;6.964;2022-11-18T06:27:16;6.00;99.90
39219;DHT22;24934;52.752;6.964;2022-11-18T06:29:42;6.00;99.90
39219;DHT22;24934;52.752;6.964;2022-11-18T06:32:07;6.00;99.90
39219;DHT22;24934;52.752;6.964;2022-11-18T06:34:33;6.00;99.90
39219;DHT22;24934;52.752;6.964;2022-11-18T06:36:59;6.00;99.90
39219;DHT22;24934;52.752;6.964;2022-11-18T06:39:25;6.00;99.90
39219;DHT22;24934;52.752;6.964;2022-11-18T06:41:53;6.00;99.90
39219;DHT22;24934;52.752;6.964;2022-11-18T06:44:19;6.00;99.90
39219;DHT22;24934;52.752;6.964;2022-11-18T06:46:44;5.90;99.90
39219;DHT22;24934;52.752;6.964;2022-11-18T06:49:25;5.90;99.90
39219;DHT22;24934;52.752;6.964;2022-11-18T06:51:52;5.90;99.90
39219;DHT22;24934;52.752;6.964;2022-11-18T06:54:18;5.90;99.90
39219;DHT22;24934;52.752;6.964;2022-11-18T06:56:44;5.90;99.90
39219;DHT22;24934;52.752;6.964;2022-11-18T06:59:09;5.90;99.90
39219;DHT22;24934;52.752;6.964;2022-11-18T07:01:37;5.90;99.90
39219;DHT22;24934;52.752;6.964;2022-11-18T07:04:03;5.80;99.90
39219;DHT22;24934;52.752;6.964;2022-11-18T07:06:31;5.80;99.90
39219;DHT22;24934;52.752;6.964;2022-11-18T07:08:59;5.80;99.90
39219;DHT22;24934;52.752;6.964;2022-11-18T07:11:26;5.80;99.90
39219;DHT22;24934;52.752;6.964;2022-11-18T07:13:52;5.80;99.90
39219;DHT22;24934;52.752;6.964;2022-11-18T07:16:22;5.80;99.90
39219;DHT22;24934;52.752;6.964;2022-11-18T07:18:50;5.80;99.90
39219;DHT22;24934;52.752;6.964;2022-11-18T07:21:24;5.80;99.90
39219;DHT22;24934;52.752;6.964;2022-11-18T07:23:50;5.80;99.90
39219;DHT22;24934;52.752;6.964;2022-11-18T07:26:16;5.80;99.90
39219;DHT22;24934;52.752;6.964;2022-11-18T07:28:42;5.90;99.90
39219;DHT22;24934;52.752;6.964;2022-11-18T07:31:10;5.80;99.90
39219;DHT22;24934;52.752;6.964;2022-11-18T07:33:37;5.80;99.90
39219;DHT22;24934;52.752;6.964;2022-11-18T07:36:06;5.80;99.90
39219;DHT22;24934;52.752;6.964;2022-11-18T07:38:32;5.80;99.90
39219;DHT22;24934;52.752;6.964;2022-11-18T07:41:05;5.80;99.90
39219;DHT22;24934;52.752;6.964;2022-11-18T07:43:38;5.80;99.90
39219;DHT22;24934;52.752;6.964;2022-11-18T07:46:17;5.80;99.90
39219;DHT22;24934;52.752;6.964;2022-11-18T07:48:44;5.70;99.90
39219;DHT22;24934;52.752;6.964;2022-11-18T07:51:10;5.80;99.90
39219;DHT22;24934;52.752;6.964;2022-11-18T07:53:36;5.70;99.90
39219;DHT22;24934;52.752;6.964;2022-11-18T07:56:02;5.70;99.90
39219;DHT22;24934;52.752;6.964;2022-11-18T07:58:28;5.80;99.90
39219;DHT22;24934;52.752;6.964;2022-11-18T08:00:54;5.70;99.90
39219;DHT22;24934;52.752;6.964;2022-11-18T08:03:26;5.70;99.90
39219;DHT22;24934;52.752;6.964;2022-11-18T08:05:59;5.70;99.90
39219;DHT22;24934;52.752;6.964;2022-11-18T08:08:25;5.70;99.90
39219;DHT22;24934;52.752;6.964;2022-11-18T08:10:54;5.60;99.90
39219;DHT22;24934;52.752;6.964;2022-11-18T08:13:20;5.70;99.90
39219;DHT22;24934;52.752;6.964;2022-11-18T08:15:49;5.70;99.90
39219;DHT22;24934;52.752;6.964;2022-11-18T08:18:14;5.60;99.90
39219;DHT22;24934;52.752;6.964;2022-11-18T08:20:40;5.60;99.90
39219;DHT22;24934;52.752;6.964;2022-11-18T08:23:06;5.60;99.90
39219;DHT22;24934;52.752;6.964;2022-11-18T08:25:31;5.60;99.90
39219;DHT22;24934;52.752;6.964;2022-11-18T08:27:57;5.60;99.90
39219;DHT22;24934;52.752;6.964;2022-11-18T08:30:22;5.60;99.90
39219;DHT22;24934;52.752;6.964;2022-11-18T08:32:48;5.60;99.90
39219;DHT22;24934;52.752;6.964;2022-11-18T08:35:14;5.60;99.90
39219;DHT22;24934;52.752;6.964;2022-11-18T08:37:39;5.60;99.90
39219;DHT22;24934;52.752;6.964;2022-11-18T08:40:05;5.60;99.90
39219;DHT22;24934;52.752;6.964;2022-11-18T08:42:31;5.60;99.90
39219;DHT22;24934;52.752;6.964;2022-11-18T08:44:56;5.60;99.90
39219;DHT22;24934;52.752;6.964;2022-11-18T08:47:22;5.60;99.90
39219;DHT22;24934;52.752;6.964;2022-11-18T08:49:48;5.60;99.90
39219;DHT22;24934;52.752;6.964;2022-11-18T08:52:13;5.70;99.90
39219;DHT22;24934;52.752;6.964;2022-11-18T08:54:39;5.70;99.90
39219;DHT22;24934;52.752;6.964;2022-11-18T08:57:04;5.80;99.90
39219;DHT22;24934;52.752;6.964;2022-11-18T08:59:30;5.70;99.90
39219;DHT22;24934;52.752;6.964;2022-11-18T09:01:57;5.80;99.90
39219;DHT22;24934;52.752;6.964;2022-11-18T09:04:22;5.70;99.90
39219;DHT22;24934;52.752;6.964;2022-11-18T09:06:48;5.70;99.90
39219;DHT22;24934;52.752;6.964;2022-11-18T09:09:14;5.80;99.90
39219;DHT22;24934;52.752;6.964;2022-11-18T09:11:39;5.80;99.90
39219;DHT22;24934;52.752;6.964;2022-11-18T09:14:05;5.80;99.90
39219;DHT22;24934;52.752;6.964;2022-11-18T09:16:32;5.80;99.90
39219;DHT22;24934;52.752;6.964;2022-11-18T09:18:58;5.80;99.90
39219;DHT22;24934;52.752;6.964;2022-11-18T09:21:25;5.70;99.90
39219;DHT22;24934;52.752;6.964;2022-11-18T09:23:51;5.70;99.90
39219;DHT22;24934;52.752;6.964;2022-11-18T09:26:20;5.70;99.90
39219;DHT22;24934;52.752;6.964;2022-11-18T09:28:47;5.70;99.90
39219;DHT22;24934;52.752;6.964;2022-11-18T09:31:15;5.70;99.90
39219;DHT22;24934;52.752;6.964;2022-11-18T09:33:41;5.70;99.90
39219;DHT22;24934;52.752;6.964;2022-11-18T09:36:13;5.70;99.90
39219;DHT22;24934;52.752;6.964;2022-11-18T09:38:39;5.70;99.90
39219;DHT22;24934;52.752;6.964;2022-11-18T09:49:27;5.60;99.90
39219;DHT22;24934;52.752;6.964;2022-11-18T09:51:53;5.60;99.90
39219;DHT22;24934;52.752;6.964;2022-11-18T09:54:22;5.60;99.90
39219;DHT22;24934;52.752;6.964;2022-11-18T09:56:50;5.60;99.90
39219;DHT22;24934;52.752;6.964;2022-11-18T09:59:24;5.60;99.90
39219;DHT22;24934;52.752;6.964;2022-11-18T10:01:53;5.70;99.90
39219;DHT22;24934;52.752;6.964;2022-11-18T10:04:20;5.60;99.90
39219;DHT22;24934;52.752;6.964;2022-11-18T10:06:47;5.60;99.90
39219;DHT22;24934;52.752;6.964;2022-11-18T10:09:33;5.60;99.90
39219;DHT22;24934;52.752;6.964;2022-11-18T10:12:21;5.60;99.90
39219;DHT22;24934;52.752;6.964;2022-11-18T10:15:17;5.60;99.90
39219;DHT22;24934;52.752;6.964;2022-11-18T10:20:32;5.60;99.90
39219;DHT22;24934;52.752;6.964;2022-11-18T10:23:18;5.60;99.90
39219;DHT22;24934;52.752;6.964;2022-11-18T10:25:46;5.50;99.90
39219;DHT22;24934;52.752;6.964;2022-11-18T10:28:21;5.60;99.90
39219;DHT22;24934;52.752;6.964;2022-11-18T10:30:47;5.60;99.90
39219;DHT22;24934;52.752;6.964;2022-11-18T10:33:23;5.60;99.90
39219;DHT22;24934;52.752;6.964;2022-11-18T10:35:49;5.50;99.90
39219;DHT22;24934;52.752;6.964;2022-11-18T10:38:17;5.50;99.90
39219;DHT22;24934;52.752;6.964;2022-11-18T10:46:25;5.50;99.90
39219;DHT22;24934;52.752;6.964;2022-11-18T10:51:37;5.40;99.90
39219;DHT22;24934;52.752;6.964;2022-11-18T10:54:14;5.40;99.90
39219;DHT22;24934;52.752;6.964;2022-11-18T10:59:45;5.40;99.90
39219;DHT22;24934;52.752;6.964;2022-11-18T11:02:18;5.30;99.90
39219;DHT22;24934;52.752;6.964;2022-11-18T11:04:49;5.30;99.90
39219;DHT22;24934;52.752;6.964;2022-11-18T11:12:33;5.40;99.90
39219;DHT22;24934;52.752;6.964;2022-11-18T11:15:05;5.30;99.90
39219;DHT22;24934;52.752;6.964;2022-11-18T11:17:42;5.30;99.90
39219;DHT22;24934;52.752;6.964;2022-11-18T11:22:35;5.20;99.90
39219;DHT22;24934;52.752;6.964;2022-11-18T11:25:01;5.10;99.90
39219;DHT22;24934;52.752;6.964;2022-11-18T11:27:48;5.10;99.90
39219;DHT22;24934;52.752;6.964;2022-11-18T11:30:21;5.10;99.90
39219;DHT22;24934;52.752;6.964;2022-11-18T11:36:03;5.10;99.90
39219;DHT22;24934;52.752;6.964;2022-11-18T11:38:56;5.00;99.90
39219;DHT22;24934;52.752;6.964;2022-11-18T11:55:34;4.80;99.90
39219;DHT22;24934;52.752;6.964;2022-11-18T12:00:40;4.80;99.90
39219;DHT22;24934;52.752;6.964;2022-11-18T12:03:35;4.70;99.90
39219;DHT22;24934;52.752;6.964;2022-11-18T12:06:03;4.60;99.90
39219;DHT22;24934;52.752;6.964;2022-11-18T12:08:31;4.60;99.90
39219;DHT22;24934;52.752;6.964;2022-11-18T12:13:51;4.60;99.90
39219;DHT22;24934;52.752;6.964;2022-11-18T12:16:41;4.60;99.90
39219;DHT22;24934;52.752;6.964;2022-11-18T12:21:54;4.50;99.90
39219;DHT22;24934;52.752;6.964;2022-11-18T12:32:41;4.50;99.90
39219;DHT22;24934;52.752;6.964;2022-11-18T12:42:57;4.40;99.90
39219;DHT22;24934;52.752;6.964;2022-11-18T12:50:56;4.30;99.90
39219;DHT22;24934;52.752;6.964;2022-11-18T12:58:51;4.30;99.90
39219;DHT22;24934;52.752;6.964;2022-11-18T13:01:20;4.30;99.90
39219;DHT22;24934;52.752;6.964;2022-11-18T13:03:46;4.30;99.90
39219;DHT22;24934;52.752;6.964;2022-11-18T13:06:26;4.30;99.90
39219;DHT22;24934;52.752;6.964;2022-11-18T13:09:04;4.30;99.90
39219;DHT22;24934;52.752;6.964;2022-11-18T13:11:32;4.30;99.90
39219;DHT22;24934;52.752;6.964;2022-11-18T13:14:24;4.30;99.90
39219;DHT22;24934;52.752;6.964;2022-11-18T13:17:33;4.30;99.90
39219;DHT22;24934;52.752;6.964;2022-11-18T13:22:57;4.30;99.90
39219;DHT22;24934;52.752;6.964;2022-11-18T13:25:43;4.30;99.90
39219;DHT22;24934;52.752;6.964;2022-11-18T13:33:34;4.10;99.90
39219;DHT22;24934;52.752;6.964;2022-11-18T13:36:00;4.10;99.90
39219;DHT22;24934;52.752;6.964;2022-11-18T13:38:27;4.10;99.90
39219;DHT22;24934;52.752;6.964;2022-11-18T13:40:53;4.10;99.90
39219;DHT22;24934;52.752;6.964;2022-11-18T13:43:37;4.10;99.90
39219;DHT22;24934;52.752;6.964;2022-11-18T13:46:07;3.90;99.90
39219;DHT22;24934;52.752;6.964;2022-11-18T13:48:34;4.00;99.90
39219;DHT22;24934;52.752;6.964;2022-11-18T13:51:02;3.90;99.90
39219;DHT22;24934;52.752;6.964;2022-11-18T13:53:30;3.90;99.90
39219;DHT22;24934;52.752;6.964;2022-11-18T13:56:13;3.90;99.90
39219;DHT22;24934;52.752;6.964;2022-11-18T14:01:19;3.80;99.90
39219;DHT22;24934;52.752;6.964;2022-11-18T14:03:49;3.70;99.90
39219;DHT22;24934;52.752;6.964;2022-11-18T14:08:50;3.60;99.90
39219;DHT22;24934;52.752;6.964;2022-11-18T14:11:34;3.60;99.90
39219;DHT22;24934;52.752;6.964;2022-11-18T14:13:59;3.50;99.90
39219;DHT22;24934;52.752;6.964;2022-11-18T14:16:36;3.50;99.90
39219;DHT22;24934;52.752;6.964;2022-11-18T14:19:03;3.50;99.90
39219;DHT22;24934;52.752;6.964;2022-11-18T14:21:31;3.50;99.90
39219;DHT22;24934;52.752;6.964;2022-11-18T14:23:58;3.40;99.90
39219;DHT22;24934;52.752;6.964;2022-11-18T14:26:30;3.40;99.90
39219;DHT22;24934;52.752;6.964;2022-11-18T14:29:02;3.40;99.90
39219;DHT22;24934;52.752;6.964;2022-11-18T14:31:29;3.40;99.90
39219;DHT22;24934;52.752;6.964;2022-11-18T14:34:21;3.40;99.90
39219;DHT22;24934;52.752;6.964;2022-11-18T14:36:49;3.40;99.90
39219;DHT22;24934;52.752;6.964;2022-11-18T14:39:30;3.40;99.90
39219;DHT22;24934;52.752;6.964;2022-11-18T14:41:57;3.40;99.90
39219;DHT22;24934;52.752;6.964;2022-11-18T14:44:24;3.30;99.90
39219;DHT22;24934;52.752;6.964;2022-11-18T14:46:58;3.30;99.90
39219;DHT22;24934;52.752;6.964;2022-11-18T14:49:25;3.30;99.90
39219;DHT22;24934;52.752;6.964;2022-11-18T14:51:53;3.30;99.90
39219;DHT22;24934;52.752;6.964;2022-11-18T14:54:21;3.20;99.90
39219;DHT22;24934;52.752;6.964;2022-11-18T14:56:49;3.20;99.90
39219;DHT22;24934;52.752;6.964;2022-11-18T14:59:17;3.20;99.90
39219;DHT22;24934;52.752;6.964;2022-11-18T15:01:43;3.20;99.90
39219;DHT22;24934;52.752;6.964;2022-11-18T15:04:10;3.20;99.90
39219;DHT22;24934;52.752;6.964;2022-11-18T15:06:36;3.10;99.90
39219;DHT22;24934;52.752;6.964;2022-11-18T15:09:02;3.10;99.90
39219;DHT22;24934;52.752;6.964;2022-11-18T15:11:27;3.00;99.90
39219;DHT22;24934;52.752;6.964;2022-11-18T15:13:53;3.00;99.90
39219;DHT22;24934;52.752;6.964;2022-11-18T15:16:21;3.00;99.90
39219;DHT22;24934;52.752;6.964;2022-11-18T15:18:53;3.00;99.90
39219;DHT22;24934;52.752;6.964;2022-11-18T15:21:19;3.00;99.90
39219;DHT22;24934;52.752;6.964;2022-11-18T15:23:45;2.90;99.90
39219;DHT22;24934;52.752;6.964;2022-11-18T15:28:39;2.90;99.90
39219;DHT22;24934;52.752;6.964;2022-11-18T15:31:04;2.80;99.90
39219;DHT22;24934;52.752;6.964;2022-11-18T15:33:31;2.80;99.90
39219;DHT22;24934;52.752;6.964;2022-11-18T15:35:56;2.80;99.90
39219;DHT22;24934;52.752;6.964;2022-11-18T15:38:22;2.70;99.90
39219;DHT22;24934;52.752;6.964;2022-11-18T15:40:47;2.70;99.90
39219;DHT22;24934;52.752;6.964;2022-11-18T15:43:13;2.60;99.90
39219;DHT22;24934;52.752;6.964;2022-11-18T15:45:39;2.70;99.90
39219;DHT22;24934;52.752;6.964;2022-11-18T15:48:05;2.60;99.90
39219;DHT22;24934;52.752;6.964;2022-11-18T15:50:30;2.60;99.90
39219;DHT22;24934;52.752;6.964;2022-11-18T15:52:56;2.60;99.90
39219;DHT22;24934;52.752;6.964;2022-11-18T15:55:22;2.60;99.90
39219;DHT22;24934;52.752;6.964;2022-11-18T15:57:47;2.60;99.90
39219;DHT22;24934;52.752;6.964;2022-11-18T16:00:13;2.60;99.90
39219;DHT22;24934;52.752;6.964;2022-11-18T16:02:39;2.60;99.90
39219;DHT22;24934;52.752;6.964;2022-11-18T16:05:05;2.70;99.90
39219;DHT22;24934;52.752;6.964;2022-11-18T16:07:31;2.60;99.90
39219;DHT22;24934;52.752;6.964;2022-11-18T16:09:56;2.60;99.90
39219;DHT22;24934;52.752;6.964;2022-11-18T16:12:40;2.60;99.90
39219;DHT22;24934;52.752;6.964;2022-11-18T16:15:15;2.50;99.90
39219;DHT22;24934;52.752;6.964;2022-11-18T16:18:00;2.60;99.90
39219;DHT22;24934;52.752;6.964;2022-11-18T16:20:26;2.50;99.90
39219;DHT22;24934;52.752;6.964;2022-11-18T16:22:52;2.50;99.90
39219;DHT22;24934;52.752;6.964;2022-11-18T16:25:19;2.50;99.90
39219;DHT22;24934;52.752;6.964;2022-11-18T16:27:45;2.60;99.90
39219;DHT22;24934;52.752;6.964;2022-11-18T16:30:10;2.50;99.90
39219;DHT22;24934;52.752;6.964;2022-11-18T16:32:55;2.50;99.90
39219;DHT22;24934;52.752;6.964;2022-11-18T16:35:20;2.50;99.90
39219;DHT22;24934;52.752;6.964;2022-11-18T16:37:46;2.40;99.90
39219;DHT22;24934;52.752;6.964;2022-11-18T16:40:11;2.30;99.90
39219;DHT22;24934;52.752;6.964;2022-11-18T16:42:37;2.30;99.90
39219;DHT22;24934;52.752;6.964;2022-11-18T16:45:03;2.30;99.90
39219;DHT22;24934;52.752;6.964;2022-11-18T16:47:29;2.30;99.90
39219;DHT22;24934;52.752;6.964;2022-11-18T16:49:54;2.30;99.90
39219;DHT22;24934;52.752;6.964;2022-11-18T16:52:20;2.30;99.90
39219;DHT22;24934;52.752;6.964;2022-11-18T16:54:45;2.30;99.90
39219;DHT22;24934;52.752;6.964;2022-11-18T16:57:11;2.30;99.90
39219;DHT22;24934;52.752;6.964;2022-11-18T16:59:37;2.20;99.90
39219;DHT22;24934;52.752;6.964;2022-11-18T17:02:03;2.20;99.90
39219;DHT22;24934;52.752;6.964;2022-11-18T17:04:29;2.20;99.90
39219;DHT22;24934;52.752;6.964;2022-11-18T17:06:55;2.20;99.90
39219;DHT22;24934;52.752;6.964;2022-11-18T17:09:24;2.30;99.90
39219;DHT22;24934;52.752;6.964;2022-11-18T17:11:51;2.20;99.90
39219;DHT22;24934;52.752;6.964;2022-11-18T17:14:17;2.20;99.90
39219;DHT22;24934;52.752;6.964;2022-11-18T17:16:50;2.20;99.90
39219;DHT22;24934;52.752;6.964;2022-11-18T17:19:19;2.20;99.90
39219;DHT22;24934;52.752;6.964;2022-11-18T17:21:45;2.20;99.90
39219;DHT22;24934;52.752;6.964;2022-11-18T17:24:16;2.10;99.90
39219;DHT22;24934;52.752;6.964;2022-11-18T17:26:42;2.10;99.90
39219;DHT22;24934;52.752;6.964;2022-11-18T17:29:09;2.00;99.90
39219;DHT22;24934;52.752;6.964;2022-11-18T17:31:35;2.00;99.90
39219;DHT22;24934;52.752;6.964;2022-11-18T17:34:01;1.90;99.90
39219;DHT22;24934;52.752;6.964;2022-11-18T17:36:27;1.90;99.90
39219;DHT22;24934;52.752;6.964;2022-11-18T17:38:54;1.80;99.90
39219;DHT22;24934;52.752;6.964;2022-11-18T17:41:24;1.80;99.90
39219;DHT22;24934;52.752;6.964;2022-11-18T17:44:11;1.80;99.90
39219;DHT22;24934;52.752;6.964;2022-11-18T17:46:37;1.80;99.90
39219;DHT22;24934;52.752;6.964;2022-11-18T17:49:14;1.80;99.90
39219;DHT22;24934;52.752;6.964;2022-11-18T17:51:40;1.80;99.90
39219;DHT22;24934;52.752;6.964;2022-11-18T17:54:07;1.70;99.90
39219;DHT22;24934;52.752;6.964;2022-11-18T17:56:33;1.60;99.90
39219;DHT22;24934;52.752;6.964;2022-11-18T17:58:59;1.50;99.90
39219;DHT22;24934;52.752;6.964;2022-11-18T18:01:25;1.50;99.90